Time;durP1;ratioP1;P1;durP2;ratioP2;P2;SDS_P1;SDS_P2;PMS_P1;PMS_P2;Temp;Humidity;BMP_temperature;BMP_pressure;BME280_temperature;BME280_humidity;BME280_pressure;Samples;Min_cycle;Max_cycle;Signal;HPM_P1;HPM_P2
2024/02/07 00:01:34;;;;;;;;;50.00;45.00;;;;;;;;6489570;39;8934;-63
2024/02/07 00:07:38;;;;;;;;;48.00;42.75;;;;;;;;6489879;39;8979;-63
2024/02/07 00:13:41;;;;;;;;;53.75;43.50;;;;;;;;6489308;39;8953;-61
2024/02/07 00:19:45;;;;;;;;;44.75;40.75;;;;;;;;6489705;39;9576;-60
2024/02/07 00:25:48;;;;;;;;;43.75;38.00;;;;;;;;6489601;31;8907;-63
2024/02/07 00:31:51;;;;;;;;;49.00;41.25;;;;;;;;6489916;39;9047;-61
2024/02/07 00:37:54;;;;;;;;;40.75;38.75;;;;;;;;6489645;31;9331;-62
2024/02/07 00:43:56;;;;;;;;;47.25;41.50;;;;;;;;6490330;39;8889;-62
2024/02/07 00:50:00;;;;;;;;;35.50;35.50;;;;;;;;6491465;39;8904;-63
2024/02/07 00:56:04;;;;;;;;;44.50;39.00;;;;;;;;6490800;39;9399;-63
2024/02/07 01:02:09;;;;;;;;;35.25;32.00;;;;;;;;6491050;39;9732;-63
2024/02/07 01:08:11;;;;;;;;;41.50;38.50;;;;;;;;6490943;39;8937;-62
2024/02/07 01:14:16;;;;;;;;;48.75;43.00;;;;;;;;6490943;39;8942;-61
2024/02/07 01:20:18;;;;;;;;;44.75;38.75;;;;;;;;6491258;39;8900;-62
2024/02/07 01:26:21;;;;;;;;;39.25;35.25;;;;;;;;6490355;39;8944;-62
2024/02/07 01:32:23;;;;;;;;;43.25;40.00;;;;;;;;6490018;39;8965;-62
2024/02/07 01:38:25;;;;;;;;;42.00;37.50;;;;;;;;6457190;36;5002529;-62
2024/02/07 01:44:32;;;;;;;;;47.75;41.00;;;;;;;;6507142;31;8906;-62
2024/02/07 01:50:39;;;;;;;;;45.75;39.25;;;;;;;;6490704;39;8890;-63
2024/02/07 01:56:43;;;;;;;;;41.25;39.00;;;;;;;;6490318;31;8845;-63
2024/02/07 02:02:48;;;;;;;;;37.67;35.67;;;;;;;;6490354;39;8855;-63
2024/02/07 02:08:54;;;;;;;;;42.25;39.50;;;;;;;;6489273;46;9053;-62
2024/02/07 02:14:56;;;;;;;;;47.50;41.00;;;;;;;;6490669;39;8883;-61
2024/02/07 02:21:01;;;;;;;;;44.00;38.00;;;;;;;;6490446;39;8909;-61
2024/02/07 02:27:17;;;;;;;;;42.50;39.75;;;;;;;;6489158;46;9003;-63
2024/02/07 02:33:23;;;;;;;;;46.25;40.75;;;;;;;;6490040;39;8936;-63
2024/02/07 02:39:30;;;;;;;;;39.25;36.50;;;;;;;;6488597;39;8876;-63
2024/02/07 02:45:33;;;;;;;;;46.00;36.00;;;;;;;;6489653;46;8900;-63
2024/02/07 02:51:37;;;;;;;;;47.75;41.50;;;;;;;;6489660;39;8922;-63
2024/02/07 02:57:42;;;;;;;;;46.00;39.50;;;;;;;;6488931;39;8852;-62
2024/02/07 03:03:53;;;;;;;;;44.33;40.00;;;;;;;;6489788;46;8879;-62
2024/02/07 03:09:57;;;;;;;;;47.25;37.75;;;;;;;;6489812;31;9098;-62
2024/02/07 03:16:02;;;;;;;;;47.50;42.25;;;;;;;;6490066;39;8859;-60
2024/02/07 03:22:06;;;;;;;;;51.00;42.75;;;;;;;;6489352;39;8920;-63
2024/02/07 03:28:12;;;;;;;;;51.00;40.25;;;;;;;;6489476;39;8960;-63
2024/02/07 03:34:15;;;;;;;;;49.75;42.00;;;;;;;;6490696;39;8904;-63
2024/02/07 03:40:18;;;;;;;;;44.00;40.00;;;;;;;;6488462;39;9563;-62
2024/02/07 03:46:21;;;;;;;;;42.75;37.00;;;;;;;;6489530;31;8865;-62
2024/02/07 03:52:25;;;;;;;;;59.25;43.75;;;;;;;;6490378;39;8918;-62
2024/02/07 03:58:28;;;;;;;;;41.25;39.25;;;;;;;;6488908;39;9583;-62
2024/02/07 04:04:31;;;;;;;;;45.00;40.75;;;;;;;;6489502;39;8899;-62
2024/02/07 04:10:41;;;;;;;;;53.25;43.75;;;;;;;;6488304;39;9376;-61
2024/02/07 06:08:14;;;;;;;;;48.00;43.00;;;;;;;;6496538;39;9066;-60
2024/02/07 06:14:16;;;;;;;;;53.00;43.50;;;;;;;;6492725;46;8966;-62
2024/02/07 06:20:19;;;;;;;;;50.75;43.50;;;;;;;;6493800;39;8848;-62
2024/02/07 06:26:21;;;;;;;;;45.25;41.25;;;;;;;;6493019;39;8922;-62
2024/02/07 06:32:24;;;;;;;;;55.75;45.75;;;;;;;;6492542;39;8903;-60
2024/02/07 06:38:26;;;;;;;;;62.00;48.00;;;;;;;;6493062;46;8841;-60
2024/02/07 06:44:30;;;;;;;;;54.75;45.25;;;;;;;;6492703;39;8909;-59
2024/02/07 06:50:33;;;;;;;;;49.00;42.00;;;;;;;;6492862;31;9461;-58
2024/02/07 06:56:35;;;;;;;;;45.25;39.50;;;;;;;;6492261;39;8915;-60
2024/02/07 07:02:37;;;;;;;;;50.50;43.00;;;;;;;;6492212;46;9026;-60
2024/02/07 07:08:39;;;;;;;;;51.75;43.75;;;;;;;;6491144;39;8902;-60
2024/02/07 07:14:42;;;;;;;;;48.50;40.00;;;;;;;;6490775;46;8872;-60
2024/02/07 07:20:45;;;;;;;;;45.25;42.50;;;;;;;;6492306;31;8962;-59
2024/02/07 07:26:48;;;;;;;;;55.50;45.25;;;;;;;;6490863;46;8880;-61
2024/02/07 07:32:51;;;;;;;;;46.00;39.75;;;;;;;;6490557;31;9014;-60
2024/02/07 07:38:55;;;;;;;;;52.67;45.00;;;;;;;;6490264;31;8880;-60
2024/02/07 07:44:57;;;;;;;;;43.75;41.50;;;;;;;;6489086;46;8903;-61
2024/02/07 07:50:59;;;;;;;;;48.25;38.75;;;;;;;;6490348;39;8888;-61
2024/02/07 07:57:05;;;;;;;;;45.00;38.75;;;;;;;;6489112;31;8975;-60
2024/02/07 08:03:07;;;;;;;;;45.25;40.25;;;;;;;;6489233;31;8948;-60
2024/02/07 08:09:11;;;;;;;;;43.75;35.75;;;;;;;;6490252;46;8903;-60
2024/02/07 08:15:13;;;;;;;;;42.25;39.00;;;;;;;;6489514;39;8876;-60
2024/02/07 08:21:16;;;;;;;;;44.75;41.25;;;;;;;;6490348;31;8918;-60
2024/02/07 08:27:19;;;;;;;;;39.00;33.75;;;;;;;;6488755;39;9551;-60
2024/02/07 08:33:23;;;;;;;;;38.50;35.75;;;;;;;;6489359;39;8887;-60
2024/02/07 08:39:25;;;;;;;;;36.25;34.75;;;;;;;;6489280;47;8881;-61
2024/02/07 08:45:27;;;;;;;;;33.25;31.25;;;;;;;;6489069;47;8917;-60
2024/02/07 08:51:30;;;;;;;;;34.25;32.50;;;;;;;;6488482;39;8908;-58
2024/02/07 08:57:32;;;;;;;;;38.50;34.50;;;;;;;;6488867;39;8864;-63
2024/02/07 09:03:35;;;;;;;;;33.00;29.50;;;;;;;;6489797;39;8936;-61
2024/02/07 09:09:37;;;;;;;;;36.75;32.50;;;;;;;;6489695;46;8998;-61
2024/02/07 09:15:40;;;;;;;;;24.25;22.75;;;;;;;;6487843;39;8872;-60
2024/02/07 09:21:44;;;;;;;;;41.75;37.75;;;;;;;;6489088;39;8915;-59
2024/02/07 09:27:48;;;;;;;;;25.50;24.75;;;;;;;;6490517;39;8971;-60
2024/02/07 09:33:50;;;;;;;;;28.25;27.75;;;;;;;;6490605;39;8937;-59
2024/02/07 09:39:59;;;;;;;;;23.00;23.00;;;;;;;;6489100;39;8919;-58
2024/02/07 09:46:05;;;;;;;;;27.00;22.50;;;;;;;;6489860;31;9197;-57
2024/02/07 09:52:09;;;;;;;;;32.50;31.00;;;;;;;;6488280;46;8969;-57
2024/02/07 09:58:12;;;;;;;;;35.75;31.75;;;;;;;;6488440;46;8875;-59
2024/02/07 10:04:23;;;;;;;;;46.50;40.25;;;;;;;;6487782;46;8933;-59
2024/02/07 10:10:28;;;;;;;;;29.00;29.00;;;;;;;;6488881;39;9956;-59
2024/02/07 10:16:32;;;;;;;;;32.00;29.67;;;;;;;;6488254;39;8869;-59
2024/02/07 10:22:40;;;;;;;;;29.00;28.33;;;;;;;;6490753;39;8883;-59
2024/02/07 10:28:43;;;;;;;;;54.75;44.50;;;;;;;;6489043;31;8942;-59
2024/02/07 10:34:54;;;;;;;;;46.00;39.75;;;;;;;;6489474;39;8898;-60
2024/02/07 10:41:02;;;;;;;;;36.33;32.33;;;;;;;;6490485;31;8881;-60
2024/02/07 10:47:09;;;;;;;;;31.67;31.00;;;;;;;;6489176;46;8883;-59
2024/02/07 10:53:13;;;;;;;;;38.33;33.67;;;;;;;;6489449;31;8932;-60
2024/02/07 10:59:19;;;;;;;;;23.67;23.00;;;;;;;;6488775;39;8966;-60
2024/02/07 11:05:23;;;;;;;;;34.67;28.67;;;;;;;;6489551;31;8978;-61
2024/02/07 11:11:28;;;;;;;;;31.33;30.00;;;;;;;;6488992;31;8855;-63
2024/02/07 11:17:31;;;;;;;;;48.33;41.00;;;;;;;;6488568;46;8833;-59
2024/02/07 11:23:38;;;;;;;;;31.33;29.00;;;;;;;;6487444;39;9581;-60
2024/02/07 11:29:43;;;;;;;;;25.00;24.33;;;;;;;;6487708;39;8888;-60
2024/02/07 11:35:49;;;;;;;;;24.33;22.67;;;;;;;;6488755;39;8948;-60
2024/02/07 11:41:55;;;;;;;;;24.67;23.67;;;;;;;;6488335;39;8891;-61
2024/02/07 11:47:58;;;;;;;;;20.33;20.33;;;;;;;;6489106;31;8908;-61
2024/02/07 11:54:05;;;;;;;;;20.67;20.33;;;;;;;;6487929;31;8916;-58
2024/02/07 12:00:13;;;;;;;;;22.00;22.00;;;;;;;;6489285;39;8884;-63
2024/02/07 12:06:16;;;;;;;;;15.67;12.67;;;;;;;;6488376;39;8943;-60
2024/02/07 12:12:20;;;;;;;;;20.00;18.00;;;;;;;;6486889;46;9059;-61
2024/02/07 12:18:24;;;;;;;;;19.67;19.00;;;;;;;;6487254;47;8879;-60
2024/02/07 12:24:32;;;;;;;;;29.33;28.00;;;;;;;;6489262;31;8844;-58
2024/02/07 12:30:36;;;;;;;;;18.67;16.33;;;;;;;;6489393;39;9826;-58
2024/02/07 12:36:39;;;;;;;;;33.00;28.00;;;;;;;;6490096;46;8844;-59
2024/02/07 12:42:43;;;;;;;;;37.33;33.33;;;;;;;;6490445;46;8848;-59
2024/02/07 12:48:45;;;;;;;;;15.67;15.67;;;;;;;;6490153;39;8958;-58
2024/02/07 12:54:50;;;;;;;;;22.33;17.00;;;;;;;;6489677;46;8915;-61
2024/02/07 13:01:00;;;;;;;;;21.33;19.67;;;;;;;;6489236;39;8950;-61
2024/02/07 13:07:05;;;;;;;;;16.67;15.33;;;;;;;;6488470;39;9136;-60
2024/02/07 13:13:07;;;;;;;;;15.00;13.00;;;;;;;;6488117;39;9618;-59
2024/02/07 13:19:15;;;;;;;;;29.67;23.67;;;;;;;;6488978;46;8898;-59
2024/02/07 13:25:21;;;;;;;;;17.00;16.67;;;;;;;;6490389;39;8872;-60
2024/02/07 13:31:23;;;;;;;;;12.33;12.33;;;;;;;;6490396;39;9523;-60
2024/02/07 13:37:25;;;;;;;;;14.67;14.00;;;;;;;;6490023;46;8919;-62
2024/02/07 13:43:28;;;;;;;;;16.67;16.67;;;;;;;;6489203;46;8899;-61
2024/02/07 13:49:30;;;;;;;;;16.33;15.67;;;;;;;;6534870;36;8916;-59
2024/02/07 13:55:33;;;;;;;;;19.33;19.33;;;;;;;;6488432;31;9030;-64
2024/02/07 14:01:35;;;;;;;;;15.67;14.00;;;;;;;;6489346;31;8912;-59
2024/02/07 14:07:40;;;;;;;;;15.67;14.33;;;;;;;;6488405;39;8927;-58
2024/02/07 14:13:43;;;;;;;;;15.00;15.00;;;;;;;;6486298;39;8896;-60
2024/02/07 14:19:45;;;;;;;;;15.67;14.33;;;;;;;;6487365;39;8912;-60
2024/02/07 14:25:48;;;;;;;;;18.00;16.67;;;;;;;;6485908;31;9476;-59
2024/02/07 14:31:53;;;;;;;;;17.33;16.67;;;;;;;;6488450;39;8923;-58
2024/02/07 14:37:56;;;;;;;;;16.00;14.33;;;;;;;;6487245;39;8959;-58
2024/02/07 14:43:58;;;;;;;;;37.67;33.33;;;;;;;;6486645;31;8931;-59
2024/02/07 14:50:03;;;;;;;;;28.67;28.67;;;;;;;;6487688;31;8872;-60
2024/02/07 14:56:08;;;;;;;;;27.67;26.67;;;;;;;;6490231;39;8843;-59
2024/02/07 15:02:12;;;;;;;;;15.67;14.33;;;;;;;;6489789;39;8897;-58
2024/02/07 15:08:15;;;;;;;;;21.00;19.33;;;;;;;;6489628;46;8899;-59
2024/02/07 15:14:17;;;;;;;;;18.33;18.33;;;;;;;;6489742;39;8881;-57
2024/02/07 15:20:19;;;;;;;;;25.33;22.00;;;;;;;;6489521;46;8859;-59
2024/02/07 15:26:22;;;;;;;;;25.00;24.00;;;;;;;;6489121;39;8876;-57
2024/02/07 15:32:25;;;;;;;;;23.33;19.67;;;;;;;;6489166;46;8860;-59
2024/02/07 15:38:29;;;;;;;;;26.33;23.00;;;;;;;;6489565;39;8886;-59
2024/02/07 15:44:32;;;;;;;;;20.00;19.00;;;;;;;;6489652;46;8879;-57
2024/02/07 15:50:36;;;;;;;;;24.33;21.33;;;;;;;;6489545;39;8947;-59
2024/02/07 15:56:38;;;;;;;;;20.33;19.00;;;;;;;;6489232;39;9040;-59
2024/02/07 16:02:42;;;;;;;;;34.50;30.00;;;;;;;;6489443;31;8948;-58
2024/02/07 16:08:50;;;;;;;;;18.00;18.00;;;;;;;;5286739;36;10008953;-58
2024/02/07 16:14:54;;;;;;;;;28.00;27.25;;;;;;;;5784789;39;22002801;-59
2024/02/07 16:20:56;;;;;;;;;26.00;23.25;;;;;;;;6487733;31;8918;-59
2024/02/07 16:26:58;;;;;;;;;23.25;23.25;;;;;;;;6488150;39;9456;-58
2024/02/07 16:33:01;;;;;;;;;31.75;28.50;;;;;;;;6487909;47;8966;-59
2024/02/07 16:39:03;;;;;;;;;21.25;21.25;;;;;;;;6489388;31;9496;-57
2024/02/07 16:45:06;;;;;;;;;31.75;28.25;;;;;;;;6487578;39;8982;-58
2024/02/07 16:51:08;;;;;;;;;27.25;26.00;;;;;;;;6307169;39;10001465;-57
2024/02/07 16:57:11;;;;;;;;;29.50;28.25;;;;;;;;6487803;39;8855;-58
2024/02/07 17:03:14;;;;;;;;;31.25;26.75;;;;;;;;6487977;39;8901;-57
2024/02/07 17:09:16;;;;;;;;;28.50;28.50;;;;;;;;6487981;39;8851;-59
2024/02/07 17:15:18;;;;;;;;;28.50;27.25;;;;;;;;6488043;39;9039;-59
2024/02/07 17:21:21;;;;;;;;;26.00;24.00;;;;;;;;6488449;39;8950;-59
2024/02/07 17:27:24;;;;;;;;;24.00;22.75;;;;;;;;6489329;39;8849;-58
2024/02/07 17:33:26;;;;;;;;;31.25;28.25;;;;;;;;6488822;31;8875;-59
2024/02/07 17:39:29;;;;;;;;;31.50;28.25;;;;;;;;6489968;39;9543;-60
2024/02/07 17:45:31;;;;;;;;;34.00;30.25;;;;;;;;6490154;31;8926;-57
2024/02/07 17:51:35;;;;;;;;;27.25;24.25;;;;;;;;6489254;46;8891;-60
2024/02/07 17:57:38;;;;;;;;;27.50;23.00;;;;;;;;6489701;46;8883;-58
2024/02/07 18:03:41;;;;;;;;;27.50;26.00;;;;;;;;6489508;39;8964;-57
2024/02/07 18:09:43;;;;;;;;;29.25;26.25;;;;;;;;6489778;31;8927;-57
2024/02/07 18:15:46;;;;;;;;;23.25;21.00;;;;;;;;6489217;46;8916;-59
2024/02/07 18:21:48;;;;;;;;;26.50;24.00;;;;;;;;6488368;46;9135;-58
2024/02/07 18:27:51;;;;;;;;;27.25;26.50;;;;;;;;6490062;31;9680;-58
2024/02/07 18:33:54;;;;;;;;;22.75;22.00;;;;;;;;6489491;39;8907;-58
2024/02/07 18:39:57;;;;;;;;;27.50;23.00;;;;;;;;6488933;46;8908;-59
2024/02/07 18:46:01;;;;;;;;;28.00;24.00;;;;;;;;6489921;39;8876;-60
2024/02/07 18:52:04;;;;;;;;;28.25;22.00;;;;;;;;6488792;39;8984;-57
2024/02/07 18:58:06;;;;;;;;;26.00;25.50;;;;;;;;6489752;39;9030;-58
2024/02/07 19:04:09;;;;;;;;;23.00;22.00;;;;;;;;6488460;31;9548;-59
2024/02/07 19:10:11;;;;;;;;;23.50;21.50;;;;;;;;6489611;39;8933;-58
2024/02/07 19:16:14;;;;;;;;;26.25;22.75;;;;;;;;6487635;39;9556;-57
2024/02/07 19:22:19;;;;;;;;;25.50;24.50;;;;;;;;6488854;39;9448;-58
2024/02/07 19:28:23;;;;;;;;;17.67;17.00;;;;;;;;6487723;39;9566;-57
2024/02/07 19:34:30;;;;;;;;;21.50;21.50;;;;;;;;6488224;39;8915;-58
2024/02/07 19:40:38;;;;;;;;;20.00;17.25;;;;;;;;6487868;46;8904;-57
2024/02/07 19:46:40;;;;;;;;;24.75;20.25;;;;;;;;6488112;39;8860;-54
2024/02/07 19:52:43;;;;;;;;;28.75;22.75;;;;;;;;6488496;46;9007;-55
2024/02/07 19:58:47;;;;;;;;;26.00;22.75;;;;;;;;6488028;46;8906;-58
2024/02/07 20:04:51;;;;;;;;;26.50;22.75;;;;;;;;6488515;31;8991;-59
2024/02/07 20:10:56;;;;;;;;;25.50;23.50;;;;;;;;6488951;39;8851;-59
2024/02/07 20:16:58;;;;;;;;;27.00;24.00;;;;;;;;6487651;31;9018;-58
2024/02/07 20:23:01;;;;;;;;;23.75;23.75;;;;;;;;6488307;31;8894;-57
2024/02/07 20:29:04;;;;;;;;;28.25;24.50;;;;;;;;6488423;31;8892;-59
2024/02/07 20:35:07;;;;;;;;;25.25;24.75;;;;;;;;6487787;39;8896;-57
2024/02/07 20:41:10;;;;;;;;;23.25;23.25;;;;;;;;6487987;47;8892;-56
2024/02/07 20:47:13;;;;;;;;;28.50;25.50;;;;;;;;6488207;39;8871;-56
2024/02/07 20:53:16;;;;;;;;;26.75;25.75;;;;;;;;6487524;39;8857;-58
2024/02/07 20:59:19;;;;;;;;;28.25;25.25;;;;;;;;6490331;39;8875;-58
2024/02/07 21:05:21;;;;;;;;;22.50;19.75;;;;;;;;6489507;46;9019;-57
2024/02/07 21:11:24;;;;;;;;;22.50;22.50;;;;;;;;6490216;39;8871;-59
2024/02/07 21:17:30;;;;;;;;;24.25;23.50;;;;;;;;6489187;39;9574;-56
2024/02/07 21:23:32;;;;;;;;;24.25;22.00;;;;;;;;6489672;31;8927;-57
2024/02/07 21:29:37;;;;;;;;;23.00;23.00;;;;;;;;6489468;39;8884;-58
2024/02/07 21:35:40;;;;;;;;;24.00;21.00;;;;;;;;6309571;46;10000729;-58
2024/02/07 21:41:42;;;;;;;;;21.50;20.75;;;;;;;;6489596;31;8884;-58
2024/02/07 21:47:45;;;;;;;;;24.50;22.50;;;;;;;;6489068;46;8981;-56
2024/02/07 21:53:48;;;;;;;;;29.50;25.50;;;;;;;;6489728;39;9626;-58
2024/02/07 21:59:51;;;;;;;;;24.00;22.75;;;;;;;;6489807;39;9603;-57
2024/02/07 22:05:54;;;;;;;;;26.50;24.75;;;;;;;;6489345;31;8936;-58
2024/02/07 22:11:56;;;;;;;;;28.25;27.25;;;;;;;;6489209;39;8907;-56
2024/02/07 22:17:58;;;;;;;;;22.25;21.75;;;;;;;;6489741;39;9379;-58
2024/02/07 22:24:00;;;;;;;;;25.75;22.75;;;;;;;;6488462;46;8907;-58
2024/02/07 22:30:03;;;;;;;;;24.50;20.75;;;;;;;;6489918;39;8864;-58
2024/02/07 22:36:07;;;;;;;;;26.50;25.25;;;;;;;;6488310;46;8954;-57
2024/02/07 22:42:10;;;;;;;;;31.25;27.50;;;;;;;;6489596;39;8880;-57
2024/02/07 22:48:12;;;;;;;;;28.00;24.00;;;;;;;;6487955;46;8997;-56
2024/02/07 22:54:16;;;;;;;;;27.75;25.25;;;;;;;;6488894;39;8912;-57
2024/02/07 23:00:20;;;;;;;;;32.00;24.00;;;;;;;;6489018;46;8966;-56
2024/02/07 23:06:22;;;;;;;;;28.75;27.75;;;;;;;;6488785;46;8940;-57
2024/02/07 23:12:24;;;;;;;;;27.75;24.00;;;;;;;;6488059;31;9636;-56
2024/02/07 23:18:27;;;;;;;;;21.00;19.75;;;;;;;;6488993;31;8955;-56
2024/02/07 23:24:30;;;;;;;;;28.25;24.50;;;;;;;;6489696;39;8898;-57
2024/02/07 23:30:34;;;;;;;;;25.50;23.25;;;;;;;;6488922;31;8873;-57
2024/02/07 23:36:36;;;;;;;;;35.75;28.50;;;;;;;;6488318;39;8855;-56
2024/02/07 23:42:40;;;;;;;;;23.00;23.00;;;;;;;;6487706;39;8864;-57
2024/02/07 23:48:42;;;;;;;;;26.50;26.25;;;;;;;;6488590;39;8909;-55
2024/02/07 23:54:45;;;;;;;;;27.50;23.75;;;;;;;;6488619;39;8911;-56
